Time;durP1;ratioP1;P1;durP2;ratioP2;P2;SDS_P1;SDS_P2;PMS_P1;PMS_P2;Temp;Humidity;BMP_temperature;BMP_pressure;BME280_temperature;BME280_humidity;BME280_pressure;Samples;Min_cycle;Max_cycle;Signal;HPM_P1;HPM_P2
2021/08/18 00:00:22;;;;;;;11.27;9.68;;;;;;;15.19;100.00;101542.75;5150544;28;20027;-67
2021/08/18 00:02:53;;;;;;;10.95;9.80;;;;;;;15.18;100.00;101547.22;5152002;28;20500;-68
2021/08/18 00:05:24;;;;;;;10.35;9.35;;;;;;;15.19;100.00;101540.13;5150978;28;20027;-68
2021/08/18 00:07:56;;;;;;;11.23;9.45;;;;;;;15.17;100.00;101542.09;5150342;28;20027;-68
2021/08/18 00:10:29;;;;;;;10.47;9.03;;;;;;;15.17;100.00;101540.28;5149426;28;20062;-68
2021/08/18 00:13:00;;;;;;;;;;;;;;;15.38;100.00;101534.81;5152508;28;20860;-68
2021/08/18 00:15:31;;;;;;;10.83;8.17;;;;;;;15.19;100.00;101534.84;5151506;28;19997;-68
2021/08/18 00:18:03;;;;;;;10.40;8.27;;;;;;;15.15;100.00;101530.81;5150594;28;20310;-68
2021/08/18 00:20:37;;;;;;;11.88;9.25;;;;;;;15.18;100.00;101541.94;5150651;28;20027;-68
2021/08/18 00:23:08;;;;;;;11.32;8.98;;;;;;;15.16;100.00;101540.44;5150313;28;20020;-67
2021/08/18 00:25:39;;;;;;;10.00;9.00;;;;;;;15.17;100.00;101537.63;5151130;28;20031;-68
2021/08/18 00:28:11;;;;;;;10.52;8.27;;;;;;;15.19;100.00;101540.13;5148847;28;20054;-68
2021/08/18 00:30:42;;;;;;;11.05;8.60;;;;;;;15.17;100.00;101531.53;5147697;29;20051;-68
2021/08/18 00:33:14;;;;;;;11.18;8.75;;;;;;;15.14;100.00;101527.34;5151744;28;20051;-68
2021/08/18 00:35:45;;;;;;;11.05;8.82;;;;;;;15.16;100.00;101530.72;5154727;28;20037;-68
2021/08/18 00:38:16;;;;;;;9.15;8.00;;;;;;;15.16;100.00;101533.34;5154628;28;20027;-68
2021/08/18 00:40:48;;;;;;;11.48;8.57;;;;;;;15.15;100.00;101533.47;5154352;28;20025;-68
2021/08/18 00:43:19;;;;;;;10.50;8.07;;;;;;;15.15;100.00;101536.94;5153016;28;20528;-68
2021/08/18 00:45:51;;;;;;;10.98;8.05;;;;;;;15.14;100.00;101535.28;5154500;29;20038;-68
2021/08/18 00:48:22;;;;;;;11.80;8.07;;;;;;;15.15;100.00;101534.28;5155153;28;20453;-68
2021/08/18 00:50:53;;;;;;;10.25;8.23;;;;;;;15.15;100.00;101534.28;5153852;28;20035;-68
2021/08/18 00:53:25;;;;;;;9.00;8.10;;;;;;;15.16;100.00;101525.44;5154043;28;20071;-68
2021/08/18 00:55:57;;;;;;;9.23;8.30;;;;;;;15.16;100.00;101525.44;5155213;28;20019;-68
2021/08/18 00:58:29;;;;;;;9.15;8.25;;;;;;;15.16;100.00;101530.72;5152215;28;20115;-68
2021/08/18 01:01:00;;;;;;;11.38;8.90;;;;;;;15.17;100.00;101536.81;5151975;28;20532;-68
2021/08/18 01:03:33;;;;;;;12.40;8.70;;;;;;;15.16;100.00;101532.50;5153930;28;20308;-68
2021/08/18 01:06:04;;;;;;;10.80;8.32;;;;;;;15.16;100.00;101522.78;5153816;29;20580;-68
2021/08/18 01:08:36;;;;;;;10.02;8.73;;;;;;;15.17;100.00;101532.34;5154274;28;20222;-68
2021/08/18 01:11:07;;;;;;;9.48;8.60;;;;;;;15.20;100.00;101537.34;5152928;28;20039;-68
2021/08/18 01:13:38;;;;;;;11.40;9.02;;;;;;;15.19;100.00;101535.72;5154102;28;20493;-68
2021/08/18 01:16:10;;;;;;;12.43;9.25;;;;;;;15.17;100.00;101537.63;5152589;28;20035;-68
2021/08/18 01:18:41;;;;;;;10.15;9.07;;;;;;;15.20;100.00;101540.00;5153773;28;20039;-67
2021/08/18 01:21:12;;;;;;;11.13;9.30;;;;;;;15.20;100.00;101537.34;5154358;28;20441;-68
2021/08/18 01:23:44;;;;;;;11.40;10.20;;;;;;;15.18;100.00;101534.00;5154555;28;20027;-68
2021/08/18 01:26:15;;;;;;;11.30;9.93;;;;;;;15.21;100.00;101527.63;5153781;28;20618;-68
2021/08/18 01:28:46;;;;;;;12.50;9.90;;;;;;;15.21;100.00;101528.47;5153979;28;20256;-68
2021/08/18 01:31:18;;;;;;;11.90;10.48;;;;;;;15.22;100.00;101532.75;5149033;28;20083;-68
2021/08/18 01:33:49;;;;;;;10.68;9.68;;;;;;;15.22;100.00;101535.38;5153457;28;20449;-68
2021/08/18 01:36:21;;;;;;;12.07;9.10;;;;;;;15.21;100.00;101525.00;5154155;28;20022;-68
2021/08/18 01:38:52;;;;;;;11.00;9.63;;;;;;;15.24;100.00;101532.63;5153495;28;20477;-67
2021/08/18 01:41:23;;;;;;;10.98;9.88;;;;;;;15.23;100.00;101537.09;5153271;28;20029;-68
2021/08/18 01:43:55;;;;;;;11.88;10.65;;;;;;;15.15;100.00;101518.47;5154123;28;20408;-68
2021/08/18 01:46:26;;;;;;;14.50;10.80;;;;;;;15.24;100.00;101525.53;5153907;28;20381;-68
2021/08/18 01:48:58;;;;;;;12.48;10.25;;;;;;;15.25;100.00;101534.28;5154907;28;20027;-68
2021/08/18 01:51:29;;;;;;;11.13;9.50;;;;;;;15.26;100.00;101530.66;5152739;28;20036;-68
2021/08/18 01:54:01;;;;;;;15.25;10.43;;;;;;;15.26;100.00;101531.50;5153350;28;20468;-68
2021/08/18 01:56:32;;;;;;;11.18;10.05;;;;;;;15.26;100.00;101526.22;5154159;28;20380;-68
2021/08/18 01:59:04;;;;;;;12.57;10.82;;;;;;;15.26;100.00;101531.50;5153726;28;20077;-68
2021/08/18 02:01:35;;;;;;;13.48;11.10;;;;;;;15.26;100.00;101533.28;5148785;28;20023;-68
2021/08/18 02:04:06;;;;;;;12.75;10.88;;;;;;;15.28;100.00;101536.63;5153290;28;20027;-68
2021/08/18 02:06:38;;;;;;;13.32;11.52;;;;;;;15.27;100.00;101533.16;5152778;28;20028;-68
2021/08/18 02:09:09;;;;;;;12.10;10.88;;;;;;;15.30;100.00;101534.66;5153285;28;20541;-68
2021/08/18 02:11:40;;;;;;;13.50;11.38;;;;;;;15.26;100.00;101523.56;5153641;28;20477;-68
2021/08/18 02:14:11;;;;;;;12.25;10.93;;;;;;;15.27;100.00;101525.25;5152303;28;20055;-68
2021/08/18 02:16:43;;;;;;;12.88;10.88;;;;;;;15.29;100.00;101525.94;5153215;28;20027;-68
2021/08/18 02:19:14;;;;;;;13.50;11.93;;;;;;;15.28;100.00;101526.91;5153080;28;20015;-68
2021/08/18 02:21:45;;;;;;;12.68;11.43;;;;;;;15.29;100.00;101525.94;5153221;28;20041;-68
2021/08/18 02:24:17;;;;;;;13.93;11.77;;;;;;;15.30;100.00;101524.13;5152693;28;20027;-68
2021/08/18 02:26:48;;;;;;;15.10;11.63;;;;;;;15.30;100.00;101522.34;5152353;28;20505;-68
2021/08/18 02:29:19;;;;;;;13.55;12.15;;;;;;;15.31;100.00;101528.44;5152410;29;20126;-68
2021/08/18 02:31:51;;;;;;;15.38;11.88;;;;;;;15.30;100.00;101532.03;5147269;28;20200;-68
2021/08/18 02:34:22;;;;;;;13.13;11.75;;;;;;;15.28;100.00;101528.72;5151643;28;20055;-68
2021/08/18 02:36:53;;;;;;;12.73;11.43;;;;;;;15.31;100.00;101517.88;5152259;28;20062;-68
2021/08/18 02:39:24;;;;;;;12.57;11.43;;;;;;;15.29;100.00;101525.94;5152149;28;20027;-68
2021/08/18 02:41:56;;;;;;;15.75;11.88;;;;;;;15.30;100.00;101516.19;5152559;28;20842;-68
2021/08/18 02:44:27;;;;;;;15.30;11.32;;;;;;;15.27;100.00;101525.25;5151950;28;20043;-68
2021/08/18 02:46:58;;;;;;;13.10;11.77;;;;;;;15.26;100.00;101515.66;5152383;28;20034;-68
2021/08/18 02:49:30;;;;;;;13.50;11.02;;;;;;;15.29;100.00;101517.19;5152942;28;20461;-67
2021/08/18 02:52:01;;;;;;;11.93;10.63;;;;;;;15.29;100.00;101514.53;5147411;28;20031;-67
2021/08/18 02:54:33;;;;;;;12.10;10.65;;;;;;;15.30;100.00;101516.19;5153114;28;20030;-67
2021/08/18 02:57:04;;;;;;;12.85;10.70;;;;;;;15.29;100.00;101511.91;5151337;28;20031;-67
2021/08/18 02:59:35;;;;;;;13.30;11.05;;;;;;;15.29;100.00;101506.63;5151575;28;20364;-67
2021/08/18 03:02:07;;;;;;;13.23;11.90;;;;;;;15.28;100.00;101512.88;5149442;28;20440;-68
2021/08/18 03:04:38;;;;;;;13.52;10.82;;;;;;;15.29;100.00;101510.09;5151967;28;20532;-67
2021/08/18 03:07:09;;;;;;;15.15;10.90;;;;;;;15.28;100.00;101513.72;5152234;28;20488;-67
2021/08/18 03:09:41;;;;;;;11.73;9.70;;;;;;;15.29;100.00;101511.91;5150831;28;20494;-67
2021/08/18 03:12:12;;;;;;;12.63;11.10;;;;;;;15.29;100.00;101520.66;5152014;28;20764;-67
2021/08/18 03:14:44;;;;;;;11.32;10.20;;;;;;;15.29;100.00;101517.19;5151764;28;20019;-67
2021/08/18 03:17:15;;;;;;;12.57;10.10;;;;;;;15.28;100.00;101519.00;5152192;28;20586;-67
2021/08/18 03:19:46;;;;;;;14.98;11.10;;;;;;;15.29;100.00;101518.00;5151740;28;20027;-67
2021/08/18 03:22:17;;;;;;;11.73;10.05;;;;;;;15.28;100.00;101519.00;5151350;28;20034;-67
2021/08/18 03:24:49;;;;;;;12.85;11.38;;;;;;;15.27;100.00;101514.69;5152051;28;20585;-67
2021/08/18 03:27:20;;;;;;;20.23;11.07;;;;;;;15.26;100.00;101523.56;5151853;28;20026;-67
2021/08/18 03:29:51;;;;;;;13.25;11.00;;;;;;;15.28;100.00;101520.81;5150389;28;20085;-67
2021/08/18 03:32:23;;;;;;;11.60;10.40;;;;;;;15.24;100.00;101517.63;5151271;28;20055;-67
2021/08/18 03:34:54;;;;;;;10.85;9.85;;;;;;;15.27;100.00;101514.69;5148478;28;20015;-67
2021/08/18 03:37:25;;;;;;;11.50;10.30;;;;;;;15.28;100.00;101515.53;5150725;28;20097;-68
2021/08/18 03:39:57;;;;;;;11.93;10.75;;;;;;;15.26;100.00;101525.38;5151845;28;20357;-67
2021/08/18 03:42:28;;;;;;;12.80;11.50;;;;;;;15.26;100.00;101528.84;5151969;28;20033;-67
2021/08/18 03:44:59;;;;;;;11.65;10.55;;;;;;;15.20;100.00;101512.78;5151944;28;20035;-67
2021/08/18 03:47:30;;;;;;;14.20;11.07;;;;;;;15.26;100.00;101518.28;5151247;28;20026;-67
2021/08/18 03:50:02;;;;;;;12.20;10.90;;;;;;;15.26;100.00;101518.28;5152106;28;20023;-67
2021/08/18 03:52:37;;;;;;;12.60;11.30;;;;;;;15.28;100.00;101524.28;5151522;28;20038;-68
2021/08/18 03:55:10;;;;;;;13.10;11.20;;;;;;;15.25;100.00;101521.09;5165791;28;20512;-68
2021/08/18 03:57:42;;;;;;;12.73;11.05;;;;;;;15.25;100.00;101518.44;5151032;28;20041;-67
2021/08/18 04:00:14;;;;;;;12.02;10.80;;;;;;;15.25;100.00;101516.63;5148892;28;20027;-67
2021/08/18 04:02:45;;;;;;;12.75;10.93;;;;;;;15.27;100.00;101514.69;5150844;28;20061;-68
2021/08/18 04:05:16;;;;;;;16.27;11.10;;;;;;;15.28;100.00;101516.34;5149073;28;20023;-67
2021/08/18 04:07:48;;;;;;;12.63;10.88;;;;;;;15.29;100.00;101512.72;5150220;28;20063;-67
2021/08/18 04:10:19;;;;;;;13.88;11.57;;;;;;;15.29;100.00;101518.00;5147131;28;20070;-68
2021/08/18 04:12:54;;;;;;;13.60;12.20;;;;;;;15.32;100.00;101522.19;5151428;28;20034;-67
2021/08/18 04:15:30;;;;;;;12.23;10.93;;;;;;;15.30;100.00;101518.84;5149962;28;20498;-68
2021/08/18 04:18:01;;;;;;;13.27;11.32;;;;;;;15.31;100.00;101520.53;5151636;28;20052;-67
2021/08/18 04:20:33;;;;;;;14.85;11.90;;;;;;;15.31;100.00;101523.97;5150757;28;20027;-67
2021/08/18 04:23:05;;;;;;;13.63;12.23;;;;;;;15.30;100.00;101517.06;5151030;28;20034;-68
2021/08/18 04:25:38;;;;;;;14.27;12.57;;;;;;;15.33;100.00;101521.19;5149693;28;20027;-67
2021/08/18 04:28:10;;;;;;;14.40;11.93;;;;;;;15.33;100.00;101521.19;5151157;28;20035;-68
2021/08/18 04:30:41;;;;;;;18.33;12.88;;;;;;;15.32;100.00;101528.28;5150601;28;20118;-68
2021/08/18 04:33:12;;;;;;;16.38;13.05;;;;;;;15.36;100.00;101528.00;5150497;28;20042;-67
2021/08/18 04:35:44;;;;;;;14.98;13.50;;;;;;;15.35;100.00;101524.53;5151477;28;20114;-68
2021/08/18 04:38:15;;;;;;;15.32;13.30;;;;;;;15.37;100.00;101527.00;5151293;28;20028;-67
2021/08/18 04:40:46;;;;;;;16.85;15.15;;;;;;;15.38;100.00;101523.38;5147292;28;20532;-68
2021/08/18 04:43:18;;;;;;;18.00;15.05;;;;;;;15.37;100.00;101525.19;5150626;28;20066;-68
2021/08/18 04:45:49;;;;;;;19.55;15.63;;;;;;;15.40;100.00;101524.09;5151112;28;20412;-67
2021/08/18 04:48:20;;;;;;;17.85;15.57;;;;;;;15.41;100.00;101531.03;5152004;28;20027;-67
2021/08/18 04:50:52;;;;;;;19.42;16.52;;;;;;;15.42;100.00;101532.69;5149564;28;20031;-68
2021/08/18 04:53:23;;;;;;;19.13;16.58;;;;;;;15.43;100.00;101529.91;5149791;28;20023;-68
2021/08/18 04:55:54;;;;;;;22.10;17.15;;;;;;;15.45;100.00;101521.84;5149684;28;20125;-68
2021/08/18 04:58:26;;;;;;;18.73;16.77;;;;;;;15.45;100.00;101522.66;5151516;28;20026;-67
2021/08/18 05:00:57;;;;;;;19.77;17.77;;;;;;;15.48;100.00;101522.38;5149254;28;20058;-67
2021/08/18 05:03:28;;;;;;;19.83;17.58;;;;;;;15.49;100.00;101521.44;5149371;28;20065;-67
2021/08/18 05:05:59;;;;;;;22.67;18.88;;;;;;;15.49;100.00;101523.22;5150385;28;20093;-68
2021/08/18 05:08:31;;;;;;;22.23;19.55;;;;;;;15.48;100.00;101518.91;5150655;28;20158;-68
2021/08/18 05:11:02;;;;;;;27.48;20.73;;;;;;;15.48;100.00;101519.75;5150487;28;20441;-68
2021/08/18 05:13:33;;;;;;;24.85;22.05;;;;;;;15.50;100.00;101520.44;5150950;28;20511;-67
2021/08/18 05:16:05;;;;;;;22.20;19.90;;;;;;;15.54;100.00;101524.44;5150768;28;20120;-68
2021/08/18 05:18:36;;;;;;;22.90;20.45;;;;;;;15.58;100.00;101515.25;5147193;28;20232;-67
2021/08/18 05:21:07;;;;;;;23.90;21.40;;;;;;;15.59;100.00;101510.81;5153064;28;20027;-67
2021/08/18 05:23:38;;;;;;;25.27;22.20;;;;;;;15.62;100.00;101507.88;5153654;28;20042;-68
2021/08/18 05:26:10;;;;;;;25.08;22.30;;;;;;;15.63;100.00;101506.88;5154714;28;20023;-67
2021/08/18 05:28:41;;;;;;;26.42;22.38;;;;;;;15.66;100.00;101514.56;5154383;28;20347;-68
2021/08/18 05:31:12;;;;;;;27.08;22.30;;;;;;;15.67;100.00;101505.63;5153048;28;20527;-67
2021/08/18 05:33:43;;;;;;;27.02;23.38;;;;;;;15.70;100.00;101513.28;5154668;28;20023;-68
2021/08/18 05:36:15;;;;;;;26.02;23.10;;;;;;;15.72;100.00;101508.69;5153502;28;20039;-68
2021/08/18 05:38:46;;;;;;;26.27;23.45;;;;;;;15.76;100.00;101507.41;5149630;28;20027;-67
2021/08/18 05:41:17;;;;;;;29.45;24.52;;;;;;;15.77;100.00;101506.44;5151075;28;20055;-68
2021/08/18 05:43:49;;;;;;;31.40;24.80;;;;;;;15.81;100.00;101509.59;5153217;29;20042;-68
2021/08/18 05:46:20;;;;;;;27.00;23.95;;;;;;;15.82;100.00;101509.44;5154078;28;20114;-67
2021/08/18 05:48:51;;;;;;;27.80;24.73;;;;;;;15.85;100.00;101507.50;5153050;28;20031;-68
2021/08/18 05:51:22;;;;;;;26.20;23.50;;;;;;;15.89;100.00;101509.69;5154302;28;20059;-68
2021/08/18 05:53:54;;;;;;;27.70;23.88;;;;;;;15.91;100.00;101505.09;5150801;28;20346;-68
2021/08/18 05:56:25;;;;;;;30.52;26.80;;;;;;;15.92;100.00;101506.75;5153646;28;20477;-67
2021/08/18 05:58:56;;;;;;;28.98;25.77;;;;;;;15.93;100.00;101508.41;5154191;28;20386;-68
2021/08/18 06:01:28;;;;;;;27.40;24.38;;;;;;;15.97;100.00;101515.06;5153565;28;20011;-68
2021/08/18 06:03:59;;;;;;;27.88;24.70;;;;;;;16.00;100.00;101508.66;5151937;28;20114;-67
2021/08/18 06:06:30;;;;;;;28.63;24.98;;;;;;;16.05;100.00;101517.78;5152582;28;20389;-68
2021/08/18 06:09:02;;;;;;;28.95;24.23;;;;;;;16.04;100.00;101518.78;5154054;28;20023;-67
2021/08/18 06:11:33;;;;;;;31.90;25.65;;;;;;;16.08;100.00;101511.38;5152332;28;20031;-67
2021/08/18 06:14:05;;;;;;;27.83;25.02;;;;;;;16.10;100.00;101512.06;5152073;29;20031;-67
2021/08/18 06:16:36;;;;;;;27.33;24.52;;;;;;;16.16;100.00;101508.81;5152724;28;20855;-68
2021/08/18 06:19:07;;;;;;;28.17;25.17;;;;;;;16.17;100.00;101512.28;5153225;28;20081;-67
2021/08/18 06:21:38;;;;;;;27.45;24.50;;;;;;;16.21;100.00;101509.22;5153600;28;20076;-67
2021/08/18 06:24:17;;;;;;;27.52;24.67;;;;;;;16.24;100.00;101508.88;5152738;28;20023;-67
2021/08/18 06:26:48;;;;;;;27.75;25.02;;;;;;;16.27;100.00;101508.59;5152037;29;20027;-67
2021/08/18 06:29:21;;;;;;;28.05;25.05;;;;;;;16.33;100.00;101514.25;5150071;28;20030;-68
2021/08/18 06:31:53;;;;;;;28.20;25.08;;;;;;;16.35;100.00;101510.47;5153285;28;20122;-67
2021/08/18 06:34:24;;;;;;;26.13;23.40;;;;;;;16.37;100.00;101515.63;5153140;29;20027;-67
2021/08/18 06:37:01;;;;;;;26.52;23.15;;;;;;;16.40;100.00;101513.53;5152115;28;20037;-67
2021/08/18 06:39:34;;;;;;;24.45;21.83;;;;;;;16.50;100.00;101518.72;5152372;28;20023;-67
2021/08/18 06:42:05;;;;;;;26.30;23.50;;;;;;;16.53;100.00;101506.00;5153406;28;20095;-67
2021/08/18 06:44:36;;;;;;;25.25;22.75;;;;;;;16.59;100.00;101517.78;5151923;28;20035;-67
2021/08/18 06:47:08;;;;;;;24.95;22.52;;;;;;;16.68;100.00;101508.94;5153043;28;20102;-67
2021/08/18 06:49:40;;;;;;;24.83;22.25;;;;;;;16.63;100.00;101519.16;5152685;28;20304;-68
2021/08/18 06:52:11;;;;;;;24.65;21.98;;;;;;;16.64;100.00;101518.19;5153784;28;20027;-67
2021/08/18 06:54:42;;;;;;;25.13;22.60;;;;;;;16.70;100.00;101524.66;5152615;28;20386;-67
2021/08/18 06:57:14;;;;;;;25.38;22.88;;;;;;;16.71;100.00;101519.22;5152963;29;20485;-68
2021/08/18 06:59:45;;;;;;;26.52;23.65;;;;;;;16.72;100.00;101523.53;5151981;28;20035;-68
2021/08/18 07:02:16;;;;;;;25.98;23.20;;;;;;;16.72;100.00;101520.88;5152739;28;20019;-68
2021/08/18 07:04:47;;;;;;;25.83;23.08;;;;;;;16.76;100.00;101524.91;5152611;28;20039;-68
2021/08/18 07:07:19;;;;;;;25.02;22.42;;;;;;;16.72;100.00;101525.34;5150174;28;20489;-68
2021/08/18 07:09:50;;;;;;;23.87;21.40;;;;;;;16.77;100.00;101529.22;5152019;29;20501;-68
2021/08/18 07:12:21;;;;;;;23.52;21.13;;;;;;;16.76;100.00;101532.84;5151673;28;20129;-68
2021/08/18 07:14:53;;;;;;;21.85;19.73;;;;;;;16.79;100.00;101526.44;5151641;28;20031;-68
2021/08/18 07:17:24;;;;;;;23.20;20.80;;;;;;;16.80;100.00;101528.09;5152161;28;20055;-68
2021/08/18 07:19:55;;;;;;;24.57;21.63;;;;;;;16.81;100.00;101524.44;5150904;28;20027;-68
2021/08/18 07:22:27;;;;;;;21.48;19.45;;;;;;;16.86;100.00;101527.47;5152395;28;20182;-68
2021/08/18 07:24:59;;;;;;;20.63;18.63;;;;;;;16.91;100.00;101532.31;5165917;28;20697;-68
2021/08/18 07:27:30;;;;;;;21.37;19.27;;;;;;;16.88;100.00;101524.66;5151044;29;20515;-67
2021/08/18 07:30:02;;;;;;;20.35;18.02;;;;;;;16.89;100.00;101524.50;5152117;28;20271;-68
2021/08/18 07:32:35;;;;;;;19.90;17.83;;;;;;;16.90;100.00;101525.34;5151539;28;20043;-68
2021/08/18 07:35:07;;;;;;;18.02;16.23;;;;;;;16.91;100.00;101529.66;5150323;29;20050;-68
2021/08/18 07:37:38;;;;;;;18.27;16.42;;;;;;;16.93;100.00;101527.66;5150705;28;20031;-68
2021/08/18 07:40:10;;;;;;;18.13;16.33;;;;;;;16.96;100.00;101530.00;5152144;28;20031;-68
2021/08/18 07:42:41;;;;;;;16.93;15.27;;;;;;;16.96;100.00;101527.38;5146573;28;20065;-68
2021/08/18 07:45:13;;;;;;;16.05;14.45;;;;;;;16.98;100.00;101531.53;5151057;28;20093;-68
2021/08/18 07:47:45;;;;;;;15.80;13.33;;;;;;;17.01;100.00;101530.41;5150964;28;20449;-68
2021/08/18 07:50:16;;;;;;;15.35;13.85;;;;;;;17.05;100.00;101528.25;5150630;28;20483;-68
2021/08/18 07:52:49;;;;;;;14.90;13.40;;;;;;;17.07;100.00;101534.22;5150788;28;20038;-68
2021/08/18 07:55:20;;;;;;;14.95;13.50;;;;;;;17.05;100.00;101531.75;5151414;29;20038;-68
2021/08/18 07:57:52;;;;;;;13.57;12.27;;;;;;;17.07;100.00;101532.41;5151246;28;20035;-68
2021/08/18 08:00:23;;;;;;;12.32;11.13;;;;;;;17.07;100.00;101539.50;5150329;28;20057;-68
2021/08/18 08:02:54;;;;;;;14.48;11.40;;;;;;;17.12;100.00;101535.44;5151479;28;20031;-68
2021/08/18 08:05:25;;;;;;;12.70;11.48;;;;;;;17.20;100.00;101532.00;5152535;28;20031;-68
2021/08/18 08:07:57;;;;;;;12.17;11.07;;;;;;;17.25;100.00;101537.66;5150166;28;20042;-68
2021/08/18 08:10:28;;;;;;;11.10;10.10;;;;;;;17.31;100.00;101530.88;5150530;28;20046;-68
2021/08/18 08:13:03;;;;;;;11.60;10.60;;;;;;;17.39;100.00;101533.59;5149971;28;20027;-68
2021/08/18 08:15:35;;;;;;;11.95;10.77;;;;;;;17.50;100.00;101533.28;5149153;29;20026;-68
2021/08/18 08:18:06;;;;;;;11.30;10.20;;;;;;;17.61;100.00;101532.19;5144501;28;20627;-68
2021/08/18 08:20:41;;;;;;;10.23;9.23;;;;;;;17.55;100.00;101531.00;5148237;28;20090;-68
2021/08/18 08:23:13;;;;;;;8.77;7.97;;;;;;;17.63;100.00;101531.03;5149587;28;20098;-68
2021/08/18 08:25:44;;;;;;;8.82;7.97;;;;;;;17.59;100.00;101528.88;5149925;29;20035;-68
2021/08/18 08:28:15;;;;;;;7.77;7.03;;;;;;;17.55;100.00;101533.66;5151701;29;20030;-68
2021/08/18 08:30:49;;;;;;;7.27;6.03;;;;;;;17.54;100.00;101537.31;5151439;28;20126;-68
2021/08/18 08:33:20;;;;;;;6.30;5.70;;;;;;;17.44;100.00;101531.28;5151084;28;20501;-68
2021/08/18 08:35:52;;;;;;;7.15;5.80;;;;;;;17.54;100.00;101536.47;5150456;28;20027;-68
2021/08/18 08:38:23;;;;;;;5.90;5.32;;;;;;;17.43;100.00;101540.25;5151680;29;20027;-68
2021/08/18 08:40:54;;;;;;;5.17;4.67;;;;;;;17.37;100.00;101530.25;5151461;28;20075;-68
2021/08/18 08:43:26;;;;;;;5.27;4.77;;;;;;;17.35;100.00;101533.09;5150541;29;20031;-68
2021/08/18 08:45:57;;;;;;;6.22;4.57;;;;;;;17.29;100.00;101546.09;5151196;28;20039;-68
2021/08/18 08:48:29;;;;;;;3.90;3.53;;;;;;;17.31;100.00;101555.53;5150539;28;20532;-68
2021/08/18 08:51:01;;;;;;;4.20;3.80;;;;;;;17.24;100.00;101551.88;5151037;28;20058;-68
2021/08/18 08:53:34;;;;;;;4.45;3.75;;;;;;;17.31;100.00;101544.13;5143286;28;20043;-68
2021/08/18 08:56:08;;;;;;;6.13;3.58;;;;;;;17.25;100.00;101556.19;5155233;28;20240;-68
2021/08/18 08:58:40;;;;;;;4.53;4.07;;;;;;;17.19;100.00;101548.84;5154945;29;20023;-68
2021/08/18 09:01:11;;;;;;;5.55;4.47;;;;;;;17.17;100.00;101556.97;5153191;28;20094;-68
2021/08/18 09:03:45;;;;;;;5.35;4.85;;;;;;;17.18;100.00;101549.84;5154631;28;20045;-68
2021/08/18 09:06:21;;;;;;;5.50;5.00;;;;;;;17.11;100.00;101554.09;5154586;29;20031;-68
2021/08/18 09:08:53;;;;;;;5.35;4.85;;;;;;;16.96;100.00;101559.13;5152675;29;20467;-67
2021/08/18 09:11:24;;;;;;;5.63;5.13;;;;;;;17.04;100.00;101559.19;5154633;28;20119;-68
2021/08/18 09:13:55;;;;;;;6.72;6.03;;;;;;;16.98;100.00;101557.16;5155218;28;20038;-67
2021/08/18 09:16:33;;;;;;;6.73;6.10;;;;;;;17.00;100.00;101555.19;5153923;28;20090;-67
2021/08/18 09:19:12;;;;;;;7.15;6.50;;;;;;;17.00;100.00;101557.84;5154613;28;20035;-68
2021/08/18 09:21:44;;;;;;;7.55;6.72;;;;;;;16.86;100.00;101558.38;5153465;29;20094;-67
2021/08/18 09:24:15;;;;;;;7.05;5.88;;;;;;;16.89;100.00;101561.56;5154893;28;20548;-68
2021/08/18 09:26:51;;;;;;;6.50;5.93;;;;;;;16.92;100.00;101558.59;5153877;29;20047;-67
2021/08/18 09:29:28;;;;;;;8.98;5.07;;;;;;;16.91;100.00;101553.47;5151478;29;20019;-67
2021/08/18 09:32:24;;;;;;;6.07;5.50;;;;;;;17.04;100.00;101561.81;5153297;28;20047;-68
2021/08/18 09:34:59;;;;;;;5.97;4.55;;;;;;;16.93;100.00;101560.28;5151868;29;20035;-68
2021/08/18 09:37:31;;;;;;;5.93;5.32;;;;;;;16.96;100.00;101553.84;5154184;28;20301;-67
2021/08/18 09:40:24;;;;;;;5.95;5.30;;;;;;;17.08;100.00;101552.59;5154530;29;20078;-67
2021/08/18 09:43:13;;;;;;;;;;;;;;;17.30;100.00;101548.59;5151705;29;20217;-67
2021/08/18 09:45:46;;;;;;;5.50;5.00;;;;;;;17.03;100.00;101547.75;5153682;29;19915;-67
2021/08/18 09:48:18;;;;;;;6.90;6.20;;;;;;;17.20;100.00;101543.41;5153419;28;20685;-67
2021/08/18 09:50:55;;;;;;;7.50;6.80;;;;;;;17.30;100.00;101539.81;5152872;28;20043;-67
2021/08/18 09:53:29;;;;;;;7.18;6.30;;;;;;;17.31;100.00;101533.53;5154116;28;20034;-67
2021/08/18 09:56:05;;;;;;;7.70;7.00;;;;;;;17.36;100.00;101528.59;5153812;29;20556;-67
2021/08/18 09:58:41;;;;;;;7.70;7.00;;;;;;;17.65;100.00;101526.44;5152778;29;20031;-67
2021/08/18 10:01:15;;;;;;;8.90;8.10;;;;;;;17.72;100.00;101530.06;5153592;28;20038;-67
2021/08/18 10:03:52;;;;;;;8.88;7.97;;;;;;;17.92;100.00;101528.03;5147688;28;20035;-67
2021/08/18 10:06:24;;;;;;;12.20;11.05;;;;;;;18.16;100.00;101529.09;5150773;28;20051;-67
2021/08/18 10:08:56;;;;;;;12.75;11.65;;;;;;;18.43;100.00;101522.66;5151422;29;20455;-67
2021/08/18 10:11:27;;;;;;;12.63;11.53;;;;;;;18.46;100.00;101517.00;5153325;28;20027;-67
2021/08/18 10:13:59;;;;;;;14.20;12.90;;;;;;;18.65;100.00;101521.16;5153104;29;20039;-68
2021/08/18 10:16:31;;;;;;;16.27;14.83;;;;;;;18.64;100.00;101520.34;5152408;28;20035;-68
2021/08/18 10:19:05;;;;;;;15.75;14.25;;;;;;;18.77;100.00;101511.88;5153639;28;20580;-68
2021/08/18 10:21:36;;;;;;;16.45;14.80;;;;;;;18.69;100.00;101499.41;5153628;29;20024;-68
2021/08/18 10:24:35;;;;;;;17.80;15.97;;;;;;;18.91;100.00;101505.91;5152932;28;20046;-68
2021/08/18 10:27:06;;;;;;;18.58;16.88;;;;;;;18.94;100.00;101504.72;5153683;29;20023;-68
2021/08/18 10:29:38;;;;;;;18.33;16.23;;;;;;;18.95;100.00;101503.75;5153015;28;20029;-68
2021/08/18 10:32:12;;;;;;;17.70;16.00;;;;;;;18.99;100.00;101513.03;5152342;29;20054;-68
2021/08/18 10:34:47;;;;;;;17.90;16.10;;;;;;;19.08;100.00;101512.00;5152066;28;20031;-68
2021/08/18 10:37:24;;;;;;;18.40;16.52;;;;;;;18.92;100.00;101506.72;5153228;29;20410;-68
2021/08/18 10:39:57;;;;;;;19.15;17.35;;;;;;;18.88;100.00;101506.22;5149961;29;20578;-68
2021/08/18 10:42:39;;;;;;;18.95;17.08;;;;;;;18.87;100.00;101501.09;5153464;28;20387;-68
2021/08/18 10:45:20;;;;;;;18.42;16.52;;;;;;;18.91;100.00;101505.91;5153104;29;20047;-68
2021/08/18 10:47:51;;;;;;;21.15;19.10;;;;;;;18.66;100.00;101497.09;5151883;29;20090;-68
2021/08/18 10:50:25;;;;;;;22.33;20.13;;;;;;;18.57;100.00;101500.75;5152426;28;20027;-68
2021/08/18 10:52:56;;;;;;;23.13;21.02;;;;;;;18.41;100.00;101498.94;5151788;28;20335;-68
2021/08/18 10:55:30;;;;;;;24.50;22.20;;;;;;;18.45;100.00;101497.63;5152732;28;20023;-68
2021/08/18 10:58:03;;;;;;;25.40;22.92;;;;;;;18.31;100.00;101502.75;5152811;29;20039;-68
2021/08/18 11:00:39;;;;;;;24.70;22.38;;;;;;;18.28;100.00;101493.28;5152147;29;20026;-68
2021/08/18 11:03:13;;;;;;;24.85;22.45;;;;;;;18.19;100.00;101494.28;5151832;29;20059;-68
2021/08/18 11:05:52;;;;;;;25.27;22.73;;;;;;;18.17;100.00;101502.38;5152050;28;20045;-68
2021/08/18 11:08:27;;;;;;;25.88;23.17;;;;;;;18.16;100.00;101506.03;5166199;28;20529;-68
2021/08/18 11:10:58;;;;;;;24.85;22.60;;;;;;;18.24;100.00;101500.75;5152369;29;20027;-68
2021/08/18 11:13:46;;;;;;;25.37;22.97;;;;;;;18.31;100.00;101503.56;5152981;28;20042;-68
2021/08/18 11:16:26;;;;;;;24.40;22.02;;;;;;;18.32;100.00;101499.91;5150605;28;20050;-68
2021/08/18 11:19:00;;;;;;;26.70;24.20;;;;;;;18.48;100.00;101486.66;5151116;28;20040;-68
2021/08/18 11:21:33;;;;;;;28.08;25.45;;;;;;;18.66;100.00;101497.09;5152802;28;20065;-68
2021/08/18 11:24:07;;;;;;;28.55;25.95;;;;;;;18.77;100.00;101489.81;5152639;28;20019;-68
2021/08/18 11:26:41;;;;;;;25.95;23.38;;;;;;;18.89;100.00;101493.78;5151143;29;20034;-68